Time;durP1;ratioP1;P1;durP2;ratioP2;P2;SDS_P1;SDS_P2;PMS_P1;PMS_P2;Temp;Humidity;BMP_temperature;BMP_pressure;BME280_temperature;BME280_humidity;BME280_pressure;Samples;Min_cycle;Max_cycle;Signal;HPM_P1;HPM_P2
2022/04/24 00:06:53;;;;;;;16.20;11.20;;;;;;;11.87;76.09;98488.97;21059716;28;20048;-75
2022/04/24 00:16:55;;;;;;;14.90;10.82;;;;;;;11.87;76.03;98488.13;21047220;28;20050;-73
2022/04/24 00:26:56;;;;;;;16.20;10.63;;;;;;;11.83;76.43;98497.94;21051371;28;20044;-72
2022/04/24 00:36:58;;;;;;;17.33;11.15;;;;;;;11.84;75.92;98502.28;21055366;28;20051;-74
2022/04/24 00:47:06;;;;;;;18.38;10.90;;;;;;;11.65;76.53;98491.84;21054466;28;20048;-73
2022/04/24 00:57:09;;;;;;;16.02;10.48;;;;;;;11.55;77.56;98483.59;21048723;28;20046;-73
2022/04/24 01:07:11;;;;;;;14.75;10.77;;;;;;;11.50;77.42;98484.75;21047970;28;20466;-74
2022/04/24 01:17:13;;;;;;;13.43;9.60;;;;;;;11.56;76.80;98472.19;21050771;28;20488;-74
2022/04/24 01:27:14;;;;;;;15.15;10.48;;;;;;;11.59;76.80;98478.19;21064376;28;20051;-74
2022/04/24 01:37:16;;;;;;;16.20;11.02;;;;;;;11.64;76.22;98481.41;21062579;28;20702;-74
2022/04/24 01:47:18;;;;;;;16.23;10.32;;;;;;;11.69;76.05;98489.88;21075127;28;20044;-74
2022/04/24 01:57:19;;;;;;;13.55;9.30;;;;;;;11.71;76.52;98498.53;21063045;28;20503;-73
2022/04/24 02:07:21;;;;;;;14.05;9.73;;;;;;;11.78;75.90;98515.63;21129337;22;20047;-85
2022/04/24 02:17:23;;;;;;;15.43;10.07;;;;;;;11.93;74.45;98528.03;21153758;28;20064;-83
2022/04/24 02:27:24;;;;;;;13.77;9.30;;;;;;;11.96;74.52;98534.88;21115362;28;20083;-83
2022/04/24 02:37:26;;;;;;;15.43;10.45;;;;;;;11.85;76.08;98519.69;21165879;28;20031;-84
2022/04/24 02:47:27;;;;;;;14.85;10.02;;;;;;;11.78;77.39;98526.13;21159900;28;20088;-84
2022/04/24 02:57:30;;;;;;;16.77;11.30;;;;;;;11.75;79.46;98537.63;21160210;28;20052;-84
2022/04/24 03:07:31;;;;;;;15.15;10.68;;;;;;;11.56;83.31;98540.31;21149711;28;20051;-83
2022/04/24 03:17:34;;;;;;;13.10;9.98;;;;;;;11.53;85.66;98540.47;21160863;28;20126;-84
2022/04/24 03:27:35;;;;;;;17.38;11.25;;;;;;;11.36;86.07;98529.97;21153619;28;20036;-84
2022/04/24 03:37:38;;;;;;;15.90;11.40;;;;;;;11.25;84.47;98517.38;21130472;28;20075;-84
2022/04/24 03:47:40;;;;;;;17.20;10.93;;;;;;;11.24;84.41;98530.56;21113457;28;20488;-84
2022/04/24 03:57:42;;;;;;;19.33;11.05;;;;;;;11.30;86.48;98546.81;21127745;28;20172;-84
2022/04/24 04:07:44;;;;;;;14.98;10.73;;;;;;;11.39;84.40;98544.69;21109695;28;20035;-84
2022/04/24 04:17:45;;;;;;;15.10;10.40;;;;;;;11.36;85.34;98555.34;21108742;28;20040;-83
2022/04/24 04:27:47;;;;;;;16.92;12.45;;;;;;;11.16;86.42;98569.38;21156455;28;20107;-83
2022/04/24 04:37:50;;;;;;;17.08;11.68;;;;;;;11.08;87.12;98567.13;21131290;28;20118;-85
2022/04/24 04:47:53;;;;;;;18.17;12.45;;;;;;;10.95;86.31;98585.16;21152852;28;20036;-85
2022/04/24 04:57:56;;;;;;;18.83;13.07;;;;;;;10.83;86.38;98598.84;21125162;28;20549;-83
2022/04/24 05:07:58;;;;;;;17.40;11.48;;;;;;;10.75;85.70;98619.28;21140558;28;20077;-84
2022/04/24 05:18:00;;;;;;;18.73;11.20;;;;;;;10.69;87.23;98628.25;21154029;28;20051;-84
2022/04/24 05:28:05;;;;;;;17.38;10.82;;;;;;;10.57;87.12;98648.88;21151121;28;20386;-83
2022/04/24 05:38:06;;;;;;;;;;;;;;;10.52;86.50;98665.63;21144583;28;20036;-83
2022/04/24 05:48:08;;;;;;;13.40;8.82;;;;;;;10.55;85.35;98674.28;21132065;28;20534;-84
2022/04/24 05:58:09;;;;;;;13.30;8.48;;;;;;;10.50;87.67;98690.16;21125376;28;20040;-84
2022/04/24 06:08:11;;;;;;;12.38;8.18;;;;;;;10.48;91.48;98708.53;21178402;28;20036;-84
2022/04/24 06:18:12;;;;;;;14.80;9.43;;;;;;;10.43;92.44;98709.63;21176870;28;20821;-83
2022/04/24 06:28:14;;;;;;;14.43;9.57;;;;;;;10.30;94.85;98718.91;21148214;28;20125;-83
2022/04/24 06:38:16;;;;;;;14.75;9.70;;;;;;;10.24;100.00;98735.72;21167168;22;20500;-82
2022/04/24 06:48:17;;;;;;;9.73;6.35;;;;;;;10.11;100.00;98745.81;21093303;28;20048;-82
2022/04/24 06:58:19;;;;;;;4.47;0.85;;;;;;;9.59;100.00;98752.22;21097288;28;20488;-81
2022/04/24 07:08:21;;;;;;;3.03;0.70;;;;;;;9.54;100.00;98756.78;21077343;28;20117;-83
2022/04/24 07:18:28;;;;;;;1.98;0.50;;;;;;;9.52;100.00;98752.44;21096832;28;20070;-82
2022/04/24 07:28:31;;;;;;;2.15;0.63;;;;;;;9.74;100.00;98746.41;21087891;28;20079;-82
2022/04/24 07:38:33;;;;;;;2.03;0.77;;;;;;;9.98;100.00;98755.91;21088322;28;20044;-83
2022/04/24 07:48:34;;;;;;;1.98;0.70;;;;;;;9.75;100.00;98754.19;21073492;28;20045;-84
2022/04/24 07:58:36;;;;;;;2.40;0.57;;;;;;;9.87;100.00;98763.31;21108347;28;20043;-84
2022/04/24 08:08:37;;;;;;;1.33;0.50;;;;;;;9.90;100.00;98757.94;21106521;28;20040;-83
2022/04/24 08:18:39;;;;;;;1.08;0.60;;;;;;;9.92;100.00;98771.00;21097775;28;20047;-83
2022/04/24 08:28:40;;;;;;;1.48;0.57;;;;;;;10.12;100.00;98772.81;21077790;28;20044;-82
2022/04/24 08:38:42;;;;;;;1.75;0.80;;;;;;;9.97;100.00;98785.56;21062138;28;20040;-84
2022/04/24 08:48:45;;;;;;;3.10;1.00;;;;;;;9.97;100.00;98790.81;21072555;28;20047;-82
2022/04/24 08:58:47;;;;;;;2.10;1.02;;;;;;;10.16;100.00;98796.16;21090583;28;20959;-82
2022/04/24 09:08:48;;;;;;;2.05;0.85;;;;;;;9.99;100.00;98799.44;21099408;28;20070;-84
2022/04/24 09:18:59;;;;;;;3.15;0.80;;;;;;;9.99;100.00;98809.88;21090893;28;20051;-84
2022/04/24 09:29:00;;;;;;;3.35;1.25;;;;;;;9.99;100.00;98809.88;21090318;28;20093;-84
2022/04/24 09:39:02;;;;;;;3.85;1.08;;;;;;;10.13;100.00;98818.97;21084511;28;20119;-84
2022/04/24 09:49:08;;;;;;;3.42;1.00;;;;;;;10.16;100.00;98817.09;21082589;28;20046;-86
2022/04/24 09:59:09;;;;;;;2.00;1.08;;;;;;;10.09;100.00;98831.31;21069751;28;20044;-83
2022/04/24 10:09:13;;;;;;;4.43;1.23;;;;;;;9.94;100.00;98832.75;21061713;28;20104;-85
2022/04/24 10:19:39;;;;;;;2.50;1.00;;;;;;;10.05;100.00;98847.16;21062135;28;20036;-83
2022/04/24 10:29:59;;;;;;;2.60;1.20;;;;;;;10.32;100.00;98860.97;21073402;28;20043;-84
2022/04/24 10:40:03;;;;;;;5.70;1.42;;;;;;;10.30;100.00;98861.06;21068933;28;20050;-85
2022/04/24 10:50:08;;;;;;;2.28;1.23;;;;;;;10.24;100.00;98863.88;21053542;28;20139;-86
2022/04/24 11:00:19;;;;;;;3.33;1.40;;;;;;;10.19;100.00;98889.34;21060260;28;20040;-81
2022/04/24 11:10:22;;;;;;;3.15;1.45;;;;;;;10.23;100.00;98890.94;21089745;28;20036;-82
2022/04/24 11:20:27;;;;;;;2.33;1.40;;;;;;;10.38;100.00;98899.97;21066985;28;20097;-83
2022/04/24 11:30:33;;;;;;;;;;;;;;;10.51;100.00;98903.81;21058992;28;20052;-82
2022/04/24 11:40:43;;;;;;;2.55;1.65;;;;;;;10.67;100.00;98910.13;21071000;28;19924;-82
2022/04/24 11:50:52;;;;;;;2.80;1.75;;;;;;;10.62;100.00;98913.84;21073204;28;20540;-86
2022/04/24 12:01:14;;;;;;;3.45;1.40;;;;;;;10.74;100.00;98929.09;21071785;28;20652;-84
2022/04/24 12:11:27;;;;;;;2.58;1.60;;;;;;;10.71;100.00;98937.06;21063926;28;20044;-83
2022/04/24 12:21:31;;;;;;;2.83;1.30;;;;;;;10.47;100.00;98947.56;21075816;28;20536;-84
2022/04/24 12:31:32;;;;;;;3.45;1.52;;;;;;;10.67;100.00;98956.41;21076345;28;20115;-83
2022/04/24 12:41:38;;;;;;;7.18;2.65;;;;;;;10.49;100.00;98965.81;21076595;28;20071;-84
2022/04/24 12:51:39;;;;;;;3.50;1.90;;;;;;;10.52;100.00;98961.31;21060815;28;20082;-86
2022/04/24 13:01:43;;;;;;;2.78;1.70;;;;;;;10.54;100.00;98971.75;21070387;28;20042;-83
2022/04/24 13:11:53;;;;;;;4.80;2.53;;;;;;;10.73;100.00;98974.47;21054854;28;20457;-84
2022/04/24 13:21:55;;;;;;;5.05;2.47;;;;;;;10.93;100.00;98966.72;21056805;28;20581;-83
2022/04/24 13:31:57;;;;;;;7.00;2.60;;;;;;;10.83;100.00;98973.22;21042518;28;20575;-86
2022/04/24 13:41:59;;;;;;;3.50;1.88;;;;;;;11.03;100.00;98981.13;21039156;28;20562;-82
2022/04/24 13:52:01;;;;;;;3.38;1.83;;;;;;;11.26;100.00;98976.75;21051247;28;20101;-84
2022/04/24 14:02:06;;;;;;;4.00;1.80;;;;;;;11.38;100.00;98994.56;21047837;28;20048;-82
2022/04/24 14:12:08;;;;;;;3.70;2.10;;;;;;;11.44;100.00;99007.41;21074523;28;20063;-84
2022/04/24 14:22:09;;;;;;;4.32;1.75;;;;;;;11.41;100.00;99004.94;21082178;28;20043;-86
2022/04/24 14:32:14;;;;;;;4.03;2.13;;;;;;;11.31;100.00;99019.31;21087181;28;20079;-87
2022/04/24 14:42:18;;;;;;;4.13;2.43;;;;;;;11.39;100.00;99019.84;21090105;28;20044;-83
2022/04/24 15:02:42;;;;;;;5.45;2.90;;;;;;;11.57;100.00;99041.81;21080076;28;20059;-85
2022/04/24 15:12:44;;;;;;;6.65;3.75;;;;;;;11.51;100.00;99050.81;20983439;28;20044;-85
2022/04/24 15:22:46;;;;;;;7.32;3.55;;;;;;;11.24;100.00;99062.41;20973986;28;20451;-84
2022/04/24 15:32:47;;;;;;;6.18;3.70;;;;;;;11.39;100.00;99064.41;20964619;28;20040;-84
2022/04/24 15:42:50;;;;;;;9.20;5.15;;;;;;;11.39;100.00;99067.00;20979380;28;20102;-82
2022/04/24 15:52:54;;;;;;;9.43;4.75;;;;;;;11.40;100.00;99076.59;20966635;28;20101;-82
2022/04/24 16:02:59;;;;;;;10.30;5.18;;;;;;;11.33;100.00;99083.00;20965380;28;20394;-85
2022/04/24 16:13:02;;;;;;;;;;;;;;;11.16;100.00;99099.41;20980813;28;20060;-86
2022/04/24 16:23:04;;;;;;;11.50;7.00;;;;;;;11.11;100.00;99100.47;20971924;28;19928;-85
2022/04/24 16:33:05;;;;;;;10.88;6.70;;;;;;;11.01;100.00;99105.19;21026739;28;20055;-84
2022/04/24 16:43:08;;;;;;;12.43;7.50;;;;;;;10.98;100.00;99115.81;21051777;28;20047;-85
2022/04/24 17:03:30;;;;;;;14.45;8.82;;;;;;;10.90;100.00;99118.72;21044153;28;20741;-84
2022/04/24 17:13:35;;;;;;;16.17;9.20;;;;;;;10.90;100.00;99113.47;21025478;28;20070;-84
2022/04/24 17:23:39;;;;;;;17.60;9.53;;;;;;;10.85;100.00;99123.25;21038781;28;20109;-84
2022/04/24 17:33:41;;;;;;;19.27;11.07;;;;;;;10.86;100.00;99138.06;21070089;28;20493;-84
2022/04/24 17:43:51;;;;;;;17.75;10.85;;;;;;;10.82;100.00;99149.56;21088566;28;20069;-84
2022/04/24 17:53:54;;;;;;;48.65;26.63;;;;;;;10.83;100.00;99163.50;21063977;28;20055;-85
2022/04/24 18:03:57;;;;;;;22.92;13.23;;;;;;;10.88;100.00;99165.06;21081337;28;20063;-85
2022/04/24 18:14:00;;;;;;;23.02;12.32;;;;;;;10.77;100.00;99169.81;21114353;28;20044;-84
2022/04/24 18:24:29;;;;;;;20.17;11.65;;;;;;;10.72;100.00;99177.84;21076262;28;21241;-85
2022/04/24 18:34:32;;;;;;;21.30;12.48;;;;;;;10.52;100.00;99193.38;21057829;28;20513;-85
2022/04/24 18:44:34;;;;;;;23.85;13.07;;;;;;;10.42;100.00;99200.72;21056205;28;20084;-85
2022/04/24 18:54:36;;;;;;;23.95;12.25;;;;;;;10.27;100.00;99217.78;21055808;28;20044;-85
2022/04/24 19:15:01;;;;;;;22.70;12.43;;;;;;;10.12;100.00;99269.72;21065953;28;20048;-85
2022/04/24 19:25:03;;;;;;;23.23;13.65;;;;;;;10.17;100.00;99284.34;21063155;28;20127;-84
2022/04/24 19:35:06;;;;;;;20.42;12.35;;;;;;;10.08;100.00;99302.09;21052160;28;20173;-85
2022/04/24 19:45:07;;;;;;;22.98;13.57;;;;;;;10.07;100.00;99314.31;21050582;28;20052;-83
2022/04/24 19:55:09;;;;;;;21.77;12.05;;;;;;;10.05;100.00;99315.25;21040537;28;20105;-84
2022/04/24 20:05:11;;;;;;;22.83;13.07;;;;;;;9.99;100.00;99326.78;21046946;28;20032;-84
2022/04/24 20:15:12;;;;;;;19.15;11.57;;;;;;;9.94;100.00;99336.50;21048233;28;20043;-84
2022/04/24 20:25:14;;;;;;;22.88;12.73;;;;;;;9.97;100.00;99347.75;21030543;28;20078;-84
2022/04/24 20:35:16;;;;;;;19.55;11.95;;;;;;;9.99;100.00;99353.78;21044568;28;20056;-85
2022/04/24 20:45:18;;;;;;;18.52;11.70;;;;;;;9.95;100.00;99362.59;21043565;28;20082;-85
2022/04/24 20:55:20;;;;;;;19.02;11.77;;;;;;;9.94;100.00;99367.91;21051819;28;20044;-85
2022/04/24 21:05:21;;;;;;;20.58;12.55;;;;;;;9.89;100.00;99378.47;21062517;28;20036;-85
2022/04/24 21:15:43;;;;;;;20.67;12.30;;;;;;;9.75;100.00;99383.25;21063479;28;20553;-85
2022/04/24 21:25:45;;;;;;;20.67;12.30;;;;;;;9.63;100.00;99394.03;21061504;28;20044;-85
2022/04/24 21:35:47;;;;;;;25.05;13.80;;;;;;;9.47;100.00;99402.31;21049273;28;20043;-85
2022/04/24 21:45:49;;;;;;;22.67;13.38;;;;;;;9.38;100.00;99409.53;21093142;28;20404;-85
2022/04/24 21:55:50;;;;;;;21.92;13.82;;;;;;;9.27;100.00;99422.91;21095886;28;20488;-85
2022/04/24 22:05:53;;;;;;;27.80;14.02;;;;;;;9.25;100.00;99432.53;21075860;28;20048;-85
2022/04/24 22:15:55;;;;;;;22.38;13.63;;;;;;;9.19;100.00;99433.53;21068324;28;20048;-84
2022/04/24 22:25:58;;;;;;;22.85;13.45;;;;;;;9.18;100.00;99437.03;21073525;22;20225;-71
2022/04/24 22:36:01;;;;;;;25.73;13.98;;;;;;;9.14;100.00;99435.41;21111818;28;20108;-71
2022/04/24 22:46:02;;;;;;;26.70;14.05;;;;;;;9.03;100.00;99444.41;21063339;28;20095;-71
2022/04/24 22:56:04;;;;;;;25.85;14.35;;;;;;;8.97;100.00;99459.34;21062979;28;20135;-71
2022/04/24 23:06:06;;;;;;;27.52;14.50;;;;;;;9.05;100.00;99453.06;21078910;28;20044;-71
2022/04/24 23:16:08;;;;;;;26.25;14.95;;;;;;;9.16;100.00;99461.50;21062690;28;20052;-70
2022/04/24 23:26:10;;;;;;;27.23;14.82;;;;;;;9.22;100.00;99474.41;21063261;28;20412;-71
2022/04/24 23:36:11;;;;;;;25.33;14.25;;;;;;;9.32;100.00;99477.63;21064726;28;20048;-71
2022/04/24 23:46:13;;;;;;;25.27;14.00;;;;;;;9.25;100.00;99490.84;21073594;28;20077;-71
2022/04/24 23:56:15;;;;;;;21.13;13.70;;;;;;;9.30;100.00;99487.28;21056252;28;20324;-71
